aviador You're here:

KGZH Decoded Metar

EVERGREEN in AL, USA
Report Time2018-01-19 10:53:00
UTC Time2018-01-19 11:18:00
Flight Rules vfr VFR
WindCalm
Visibility9999 m
Phenomena:N/A
Clouds:N/A
Expected CloudBase > 800 ft AGL from Temp-Dew spread
CeilingNone
Temp-6°C (ISA -20)
Dew Point-8°C (86% RH)
AAT-8.9°C
QNH1028 hPa
Density Alt-2,746 ft
Elevation256 ft
Report Wrong Elevation
Raw Report
KGZH 191053Z AUTO 00000KT 10SM CLR M06/M08 A3037 RMK AO2 SLP283
T10611083=

Extra information for KGZH:More info

Metar Taf Metar & Taf Last 4 Metars F.Rules Stats Wind Profile Meteogram Temp Stats Airport Information Weather charts Add Link Nearby VenuesMetar ALERT Operation Metar Decoded Social comments

AIRNAV info for KGZH